Time;durP1;ratioP1;P1;durP2;ratioP2;P2;SDS_P1;SDS_P2;PMS_P1;PMS_P2;Temp;Humidity;BMP_temperature;BMP_pressure;BME280_temperature;BME280_humidity;BME280_pressure;Samples;Min_cycle;Max_cycle;Signal;HPM_P1;HPM_P2
2023/08/26 00:01:50;;;;;;;5.63;3.05;;;22.80;99.90;;;;;;5098543;28;20032;-86
2023/08/26 00:04:16;;;;;;;9.73;2.67;;;22.80;99.90;;;;;;5096115;28;20020;-86
2023/08/26 00:06:41;;;;;;;12.63;2.35;;;22.80;99.90;;;;;;5095109;28;20439;-86
2023/08/26 00:09:07;;;;;;;7.97;2.63;;;22.80;99.90;;;;;;5094201;28;20098;-88
2023/08/26 00:11:33;;;;;;;10.00;2.53;;;22.80;99.90;;;;;;5095296;28;20484;-87
2023/08/26 00:13:58;;;;;;;10.82;2.53;;;22.70;99.90;;;;;;5093989;28;20028;-87
2023/08/26 00:16:24;;;;;;;3.80;1.85;;;22.80;99.90;;;;;;5095421;28;20485;-87
2023/08/26 00:18:50;;;;;;;3.70;2.08;;;22.70;99.90;;;;;;5095361;28;20048;-87
2023/08/26 00:21:20;;;;;;;8.52;2.45;;;22.70;99.90;;;;;;5092890;28;20024;-88
2023/08/26 00:23:46;;;;;;;5.10;2.47;;;22.70;99.90;;;;;;5092111;28;20021;-89
2023/08/26 00:26:12;;;;;;;8.13;2.63;;;22.60;99.90;;;;;;5094611;28;20035;-89
2023/08/26 00:28:38;;;;;;;12.93;3.00;;;22.60;99.90;;;;;;5095155;28;20420;-88
2023/08/26 00:31:03;;;;;;;5.68;2.28;;;22.60;99.90;;;;;;5094864;28;20091;-88
2023/08/26 00:33:29;;;;;;;8.18;3.13;;;22.60;99.90;;;;;;5093927;28;20067;-88
2023/08/26 00:35:55;;;;;;;8.60;2.67;;;22.70;99.90;;;;;;5094773;28;20488;-88
2023/08/26 00:38:21;;;;;;;7.10;3.00;;;22.60;99.90;;;;;;5093662;28;20028;-88
2023/08/26 00:40:47;;;;;;;11.38;3.00;;;22.60;99.90;;;;;;5095040;28;20024;-88
2023/08/26 00:43:13;;;;;;;9.32;2.63;;;22.70;99.90;;;;;;5093958;28;20024;-88
2023/08/26 00:45:42;;;;;;;8.60;2.85;;;22.70;99.90;;;;;;5100982;28;20032;-88
2023/08/26 00:48:11;;;;;;;7.13;2.80;;;22.80;99.90;;;;;;5108806;28;20591;-88
2023/08/26 00:50:40;;;;;;;5.25;2.67;;;22.90;99.90;;;;;;5093705;28;20046;-88
2023/08/26 00:53:06;;;;;;;10.10;3.38;;;23.00;99.90;;;;;;5093647;28;20074;-87
2023/08/26 00:55:34;;;;;;;12.52;3.42;;;23.00;99.90;;;;;;5094278;28;20032;-87
2023/08/26 00:58:00;;;;;;;5.40;2.67;;;23.00;99.90;;;;;;5094655;28;20127;-88
2023/08/26 01:00:26;;;;;;;13.88;2.83;;;23.00;99.90;;;;;;5094127;28;20052;-87
2023/08/26 01:02:51;;;;;;;10.00;3.08;;;23.00;99.90;;;;;;5094439;28;20077;-88
2023/08/26 01:05:17;;;;;;;7.88;3.40;;;23.00;99.90;;;;;;5094489;28;20099;-87
2023/08/26 01:07:45;;;;;;;7.85;2.45;;;23.10;99.90;;;;;;5092578;28;20042;-87
2023/08/26 01:10:11;;;;;;;10.98;3.17;;;23.10;99.90;;;;;;5092759;28;20057;-85
2023/08/26 01:13:04;;;;;;;7.47;3.00;;;23.10;99.90;;;;;;5094063;28;20142;-86
2023/08/26 01:15:30;;;;;;;12.48;3.30;;;23.10;99.90;;;;;;5093729;28;20044;-87
2023/08/26 01:17:59;;;;;;;6.22;3.08;;;23.10;99.90;;;;;;5093066;28;20062;-87
2023/08/26 01:20:27;;;;;;;11.20;3.03;;;23.10;99.90;;;;;;5093045;28;20027;-86
2023/08/26 01:22:55;;;;;;;10.75;3.08;;;23.10;99.90;;;;;;5093906;28;20079;-87
2023/08/26 01:25:21;;;;;;;9.93;3.50;;;23.10;99.90;;;;;;5093979;28;20024;-86
2023/08/26 01:27:47;;;;;;;8.15;3.33;;;23.10;99.90;;;;;;5092317;28;20027;-86
2023/08/26 01:30:13;;;;;;;11.73;3.10;;;23.10;99.90;;;;;;5092428;28;20032;-86
2023/08/26 01:33:01;;;;;;;7.05;3.45;;;23.10;99.90;;;;;;5092500;28;20020;-86
2023/08/26 01:35:33;;;;;;;4.43;3.35;;;23.10;99.90;;;;;;5093073;28;20111;-86
2023/08/26 01:37:59;;;;;;;7.35;3.05;;;23.10;99.90;;;;;;5093743;28;20027;-86
2023/08/26 01:40:27;;;;;;;7.13;3.03;;;23.10;99.90;;;;;;5093611;28;20031;-86
2023/08/26 01:42:54;;;;;;;9.40;3.20;;;23.10;99.90;;;;;;5093563;28;20024;-86
2023/08/26 01:45:20;;;;;;;6.90;2.88;;;23.00;99.90;;;;;;5092424;28;20024;-86
2023/08/26 01:47:45;;;;;;;7.95;3.10;;;22.90;99.90;;;;;;5092670;28;20035;-86
2023/08/26 01:50:11;;;;;;;8.02;3.35;;;22.80;99.90;;;;;;5092151;28;20025;-86
2023/08/26 01:52:37;;;;;;;4.97;3.00;;;22.80;99.90;;;;;;5093285;28;20097;-86
2023/08/26 01:55:03;;;;;;;5.85;3.10;;;22.70;99.90;;;;;;5093178;28;20120;-86
2023/08/26 01:57:29;;;;;;;10.13;3.20;;;22.60;99.90;;;;;;5092047;28;20036;-86
2023/08/26 01:59:54;;;;;;;9.30;3.10;;;22.50;99.90;;;;;;5093346;28;20035;-85
2023/08/26 02:02:20;;;;;;;6.82;2.75;;;22.50;99.90;;;;;;5092667;28;20413;-86
2023/08/26 02:04:46;;;;;;;5.68;3.03;;;22.40;99.90;;;;;;5092970;28;20053;-85
2023/08/26 02:07:12;;;;;;;8.68;3.28;;;22.40;99.90;;;;;;5091607;28;20057;-85
2023/08/26 02:09:37;;;;;;;7.55;3.05;;;22.40;99.90;;;;;;5093243;28;20482;-86
2023/08/26 02:12:03;;;;;;;12.88;3.20;;;22.40;99.90;;;;;;5093216;28;20059;-86
2023/08/26 02:14:29;;;;;;;8.43;3.20;;;22.30;99.90;;;;;;5091478;28;20527;-87
2023/08/26 02:16:55;;;;;;;6.20;2.92;;;22.30;99.90;;;;;;5092935;28;20028;-86
2023/08/26 02:19:20;;;;;;;9.02;3.40;;;22.30;99.90;;;;;;5093056;28;20028;-86
2023/08/26 02:21:46;;;;;;;8.63;3.25;;;22.30;99.90;;;;;;5092656;28;20081;-86
2023/08/26 02:24:12;;;;;;;5.35;2.95;;;22.30;99.90;;;;;;5090036;28;20027;-86
2023/08/26 02:26:37;;;;;;;9.27;3.60;;;22.30;99.90;;;;;;5092977;28;20077;-87
2023/08/26 02:29:03;;;;;;;9.00;2.90;;;22.30;99.90;;;;;;5091277;28;20496;-87
2023/08/26 02:31:29;;;;;;;9.13;3.50;;;22.20;99.90;;;;;;5105514;28;20095;-86
2023/08/26 02:33:55;;;;;;;10.13;4.18;;;22.30;99.90;;;;;;5100668;28;20028;-86
2023/08/26 02:36:20;;;;;;;10.50;3.50;;;22.30;99.90;;;;;;5095820;28;20044;-87
2023/08/26 02:38:46;;;;;;;11.52;2.92;;;22.30;99.90;;;;;;5097009;28;20063;-87
2023/08/26 02:41:12;;;;;;;5.72;2.97;;;22.40;99.90;;;;;;5096903;28;20022;-87
2023/08/26 02:43:38;;;;;;;8.20;3.30;;;22.30;99.90;;;;;;5095468;28;20107;-86
2023/08/26 02:46:03;;;;;;;8.20;3.78;;;22.40;99.90;;;;;;5096875;28;20074;-86
2023/08/26 02:48:29;;;;;;;18.45;12.13;;;22.30;99.90;;;;;;5095206;28;20110;-86
2023/08/26 02:50:59;;;;;;;12.05;5.25;;;22.30;99.90;;;;;;5093693;28;20020;-86
2023/08/26 02:53:26;;;;;;;6.97;3.03;;;22.30;99.90;;;;;;5094770;28;20024;-87
2023/08/26 02:55:52;;;;;;;7.00;3.15;;;22.40;99.90;;;;;;5095669;28;20073;-86
2023/08/26 02:58:18;;;;;;;4.53;2.80;;;22.40;99.90;;;;;;5095374;28;20020;-85
2023/08/26 03:00:44;;;;;;;7.25;2.58;;;22.40;99.90;;;;;;5095412;28;20024;-86
2023/08/26 03:03:10;;;;;;;8.25;2.65;;;22.40;99.90;;;;;;5095421;28;20669;-86
2023/08/26 03:05:35;;;;;;;9.63;3.10;;;22.40;99.90;;;;;;5096542;28;20388;-86
2023/08/26 03:08:01;;;;;;;9.40;2.67;;;22.40;99.90;;;;;;5095259;28;20103;-87
2023/08/26 03:10:27;;;;;;;5.05;2.70;;;22.40;99.90;;;;;;5096431;28;20393;-85
2023/08/26 03:12:54;;;;;;;6.43;2.63;;;22.40;99.90;;;;;;5096284;28;20411;-86
2023/08/26 03:15:20;;;;;;;6.45;3.40;;;22.30;99.90;;;;;;5096308;28;20048;-86
2023/08/26 03:17:45;;;;;;;7.47;2.60;;;22.20;99.90;;;;;;5094141;28;20032;-86
2023/08/26 03:20:12;;;;;;;9.50;3.10;;;22.20;99.90;;;;;;5094018;28;20043;-86
2023/08/26 03:22:38;;;;;;;7.60;3.15;;;22.20;99.90;;;;;;5094827;28;20023;-86
2023/08/26 03:25:04;;;;;;;8.38;3.83;;;22.10;99.90;;;;;;5094836;28;20400;-86
2023/08/26 03:27:30;;;;;;;6.38;3.17;;;22.10;99.90;;;;;;5096792;28;20054;-87
2023/08/26 03:29:56;;;;;;;7.65;3.00;;;22.10;99.90;;;;;;5094939;28;20070;-87
2023/08/26 03:32:21;;;;;;;3.75;2.47;;;22.00;99.90;;;;;;5095884;28;20012;-86
2023/08/26 03:34:47;;;;;;;6.22;2.80;;;22.00;99.90;;;;;;5094805;28;20063;-87
2023/08/26 03:37:13;;;;;;;9.52;3.00;;;22.00;99.90;;;;;;5094655;28;20032;-86
2023/08/26 03:39:39;;;;;;;7.07;2.97;;;22.00;99.90;;;;;;5095609;28;20028;-86
2023/08/26 03:42:05;;;;;;;14.00;4.43;;;21.90;99.90;;;;;;5094289;28;20028;-85
2023/08/26 03:44:31;;;;;;;12.13;4.47;;;21.90;99.90;;;;;;5094920;28;20032;-86
2023/08/26 03:46:57;;;;;;;10.52;2.90;;;21.80;99.90;;;;;;5094373;28;20028;-86
2023/08/26 03:49:22;;;;;;;5.47;2.60;;;21.80;99.90;;;;;;5095550;28;20054;-86
2023/08/26 03:51:48;;;;;;;7.50;2.95;;;21.80;99.90;;;;;;5093987;28;20030;-87
2023/08/26 03:54:14;;;;;;;6.97;3.05;;;21.80;99.90;;;;;;5095589;28;20484;-86
2023/08/26 03:56:40;;;;;;;16.67;4.60;;;21.80;99.90;;;;;;5094270;28;20093;-86
2023/08/26 03:59:06;;;;;;;8.85;3.00;;;21.80;99.90;;;;;;5094202;28;20089;-87
2023/08/26 04:01:32;;;;;;;11.65;3.05;;;21.80;99.90;;;;;;5094068;28;20050;-84
2023/08/26 04:03:58;;;;;;;10.25;2.50;;;21.90;99.90;;;;;;5094424;28;20476;-84
2023/08/26 04:06:23;;;;;;;8.63;2.58;;;22.00;99.90;;;;;;5094147;28;20050;-87
2023/08/26 04:08:49;;;;;;;12.23;3.10;;;22.10;99.90;;;;;;5093993;28;20061;-85
2023/08/26 04:11:17;;;;;;;6.68;2.63;;;22.20;99.90;;;;;;5093782;28;20028;-86
2023/08/26 04:13:45;;;;;;;6.82;2.60;;;22.20;99.90;;;;;;5101344;28;20017;-86
2023/08/26 04:16:11;;;;;;;8.20;2.80;;;22.20;99.90;;;;;;5101412;28;20032;-86
2023/08/26 04:18:37;;;;;;;8.55;2.38;;;22.30;99.90;;;;;;5093835;28;20123;-86
2023/08/26 04:21:03;;;;;;;11.40;2.80;;;22.30;99.90;;;;;;5094619;28;20142;-86
2023/08/26 04:23:30;;;;;;;10.70;2.90;;;22.30;99.90;;;;;;5093473;28;20065;-86
2023/08/26 04:25:59;;;;;;;9.93;2.92;;;22.40;99.90;;;;;;5094520;28;20031;-86
2023/08/26 04:28:25;;;;;;;6.80;3.03;;;22.40;99.90;;;;;;5094376;28;20020;-86
2023/08/26 04:30:51;;;;;;;10.55;2.95;;;22.40;99.90;;;;;;5092371;28;20114;-86
2023/08/26 04:33:17;;;;;;;10.98;2.72;;;22.40;99.90;;;;;;5092206;28;20024;-86
2023/08/26 04:35:42;;;;;;;5.75;2.78;;;22.40;99.90;;;;;;5093416;28;20058;-86
2023/08/26 04:38:08;;;;;;;10.50;2.60;;;22.40;99.90;;;;;;5093448;28;20062;-85
2023/08/26 04:40:33;;;;;;;6.13;2.75;;;22.50;99.90;;;;;;5093004;28;20024;-86
2023/08/26 04:43:02;;;;;;;7.80;2.60;;;22.60;99.90;;;;;;5094265;28;20031;-86
2023/08/26 04:45:28;;;;;;;14.23;2.53;;;22.70;99.90;;;;;;5094557;28;20530;-87
2023/08/26 04:47:53;;;;;;;6.40;2.85;;;22.70;99.90;;;;;;5093551;28;20028;-87
2023/08/26 04:50:19;;;;;;;8.68;2.35;;;22.80;99.90;;;;;;5093116;28;20021;-86
2023/08/26 04:52:44;;;;;;;10.82;3.15;;;22.90;99.90;;;;;;5093328;28;20557;-87
2023/08/26 04:55:10;;;;;;;6.03;3.03;;;23.10;99.90;;;;;;5091754;28;20063;-85
2023/08/26 04:57:36;;;;;;;5.68;2.92;;;23.20;99.90;;;;;;5093997;28;20053;-86
2023/08/26 05:00:08;;;;;;;13.57;3.13;;;23.30;99.90;;;;;;5092810;28;20539;-86
2023/08/26 05:02:34;;;;;;;6.35;2.55;;;23.40;99.90;;;;;;5092723;28;20027;-86
2023/08/26 05:04:59;;;;;;;8.57;2.65;;;23.60;99.90;;;;;;5093045;28;20028;-86
2023/08/26 05:07:25;;;;;;;9.60;2.70;;;23.80;99.90;;;;;;5092996;28;20030;-87
2023/08/26 05:09:51;;;;;;;8.10;2.72;;;24.00;99.90;;;;;;5092525;28;20095;-86
2023/08/26 05:12:16;;;;;;;9.70;2.72;;;24.20;99.90;;;;;;5092549;28;20020;-86
2023/08/26 05:14:42;;;;;;;8.00;3.33;;;24.40;99.90;;;;;;5093562;28;20048;-86
2023/08/26 05:17:08;;;;;;;10.15;2.35;;;24.60;99.90;;;;;;5092728;28;20036;-86
2023/08/26 05:19:33;;;;;;;7.57;2.65;;;24.90;99.90;;;;;;5092779;28;20484;-86
2023/08/26 05:21:59;;;;;;;8.57;2.55;;;25.10;99.90;;;;;;5092581;28;20476;-87
2023/08/26 05:24:26;;;;;;;5.50;2.65;;;25.30;99.90;;;;;;5093769;28;20024;-87
2023/08/26 05:26:52;;;;;;;8.88;2.60;;;25.40;99.90;;;;;;5092411;28;20024;-86
2023/08/26 05:29:18;;;;;;;11.80;3.38;;;25.60;99.90;;;;;;5093808;28;20020;-87
2023/08/26 05:31:45;;;;;;;6.32;2.80;;;25.80;99.90;;;;;;5092691;28;20023;-87
2023/08/26 05:34:10;;;;;;;6.97;3.03;;;26.10;99.90;;;;;;5092522;28;20433;-86
2023/08/26 05:36:36;;;;;;;11.52;3.53;;;26.50;99.90;;;;;;5092606;28;20074;-86
2023/08/26 05:39:02;;;;;;;5.32;2.40;;;26.80;99.90;;;;;;5093713;28;20016;-86
2023/08/26 05:41:27;;;;;;;6.38;2.30;;;27.10;99.90;;;;;;5093647;28;20027;-86
2023/08/26 05:43:53;;;;;;;6.53;2.10;;;27.30;99.90;;;;;;5092394;28;20035;-87
2023/08/26 05:46:19;;;;;;;7.05;2.53;;;27.60;99.90;;;;;;5092644;28;20028;-87
2023/08/26 05:48:44;;;;;;;5.05;2.35;;;27.90;99.90;;;;;;5092257;28;20491;-87
2023/08/26 05:51:10;;;;;;;7.85;2.42;;;28.30;99.90;;;;;;5093214;28;20028;-87
2023/08/26 05:53:36;;;;;;;7.18;2.30;;;28.60;99.90;;;;;;5092223;28;20020;-87
2023/08/26 05:56:01;;;;;;;8.57;2.17;;;29.10;99.90;;;;;;5097746;28;20032;-87
2023/08/26 05:58:27;;;;;;;10.55;2.05;;;29.60;99.10;;;;;;5108434;28;20028;-86
2023/08/26 06:00:53;;;;;;;4.97;2.15;;;30.10;97.30;;;;;;5103716;28;20028;-85
2023/08/26 06:03:18;;;;;;;7.28;2.88;;;30.60;95.00;;;;;;5093285;28;20032;-86
2023/08/26 06:05:44;;;;;;;9.45;2.30;;;30.80;93.90;;;;;;5092824;28;20031;-86
2023/08/26 06:08:10;;;;;;;6.43;3.13;;;31.10;94.00;;;;;;5093137;28;20045;-87
2023/08/26 06:10:35;;;;;;;6.32;3.00;;;31.40;93.00;;;;;;5092240;28;20062;-87
2023/08/26 06:13:01;;;;;;;8.60;3.85;;;31.70;91.10;;;;;;5090203;28;20409;-87
2023/08/26 06:15:27;;;;;;;13.15;2.92;;;32.10;89.30;;;;;;5090402;28;20464;-87
2023/08/26 06:17:54;;;;;;;9.63;3.13;;;32.50;86.60;;;;;;5093025;28;20092;-87
2023/08/26 06:20:20;;;;;;;10.45;2.95;;;32.90;84.10;;;;;;5091745;28;20032;-87
2023/08/26 06:22:46;;;;;;;11.25;3.22;;;33.20;80.00;;;;;;5091459;28;20362;-87
2023/08/26 06:25:12;;;;;;;8.52;2.90;;;33.60;77.50;;;;;;5092765;28;20020;-86
2023/08/26 06:27:38;;;;;;;7.88;2.05;;;33.90;76.10;;;;;;5092545;28;20032;-87
2023/08/26 06:30:04;;;;;;;8.68;2.58;;;34.20;72.20;;;;;;5092636;28;20043;-87
2023/08/26 06:32:30;;;;;;;12.00;2.70;;;34.60;69.50;;;;;;5091389;28;20059;-87
2023/08/26 06:34:56;;;;;;;6.80;2.85;;;34.70;68.10;;;;;;5092584;28;20039;-87
2023/08/26 06:37:22;;;;;;;11.60;3.00;;;35.10;65.00;;;;;;5092562;28;20032;-86
2023/08/26 06:39:47;;;;;;;6.13;2.30;;;35.50;63.20;;;;;;5090999;28;20047;-86
2023/08/26 06:42:14;;;;;;;7.70;2.00;;;35.80;62.20;;;;;;5090933;28;20050;-86
2023/08/26 06:44:39;;;;;;;6.88;2.28;;;36.00;60.70;;;;;;5092495;28;20017;-87
2023/08/26 06:47:09;;;;;;;8.55;2.92;;;36.20;56.00;;;;;;5091958;28;20028;-87
2023/08/26 06:49:35;;;;;;;9.60;2.15;;;36.40;56.00;;;;;;5092247;28;20020;-87
2023/08/26 06:52:00;;;;;;;7.60;2.92;;;36.50;54.90;;;;;;5092358;28;21110;-87
2023/08/26 06:54:26;;;;;;;6.80;2.42;;;36.70;54.80;;;;;;5090991;28;20024;-87
2023/08/26 06:56:52;;;;;;;7.70;2.80;;;36.90;53.30;;;;;;5090875;28;20040;-86
2023/08/26 06:59:18;;;;;;;14.73;3.15;;;37.20;53.50;;;;;;5090766;28;20032;-85
2023/08/26 07:01:44;;;;;;;9.77;2.65;;;37.20;53.40;;;;;;5090831;28;20028;-87
2023/08/26 07:04:11;;;;;;;7.93;2.67;;;37.40;49.80;;;;;;5090656;28;20488;-87
2023/08/26 07:06:36;;;;;;;6.55;2.60;;;37.30;51.90;;;;;;5092235;28;20027;-87
2023/08/26 07:09:05;;;;;;;11.40;3.08;;;37.40;50.50;;;;;;5090896;28;20405;-86
2023/08/26 07:11:32;;;;;;;11.38;2.75;;;37.20;50.50;;;;;;5090697;28;20039;-86
2023/08/26 07:13:58;;;;;;;12.25;2.65;;;37.60;49.30;;;;;;5090591;28;20024;-86
2023/08/26 07:16:28;;;;;;;18.58;2.95;;;38.10;47.50;;;;;;5091742;28;20097;-86
2023/08/26 07:18:54;;;;;;;9.50;3.33;;;38.20;49.00;;;;;;5092444;28;20051;-86
2023/08/26 07:21:20;;;;;;;12.43;2.90;;;38.40;49.30;;;;;;5095449;28;20488;-86
2023/08/26 07:23:46;;;;;;;9.23;2.80;;;38.40;48.40;;;;;;5094309;28;20016;-88
2023/08/26 07:26:11;;;;;;;12.98;4.82;;;38.70;48.60;;;;;;5095406;28;20051;-86
2023/08/26 07:28:37;;;;;;;7.28;3.05;;;38.80;48.60;;;;;;5094884;28;20028;-86
2023/08/26 07:31:04;;;;;;;7.15;2.95;;;38.80;47.70;;;;;;5095096;28;20108;-86
2023/08/26 07:33:31;;;;;;;7.30;2.90;;;39.20;46.20;;;;;;5095014;28;20027;-86
2023/08/26 07:36:09;;;;;;;13.50;2.92;;;39.60;45.50;;;;;;5094104;28;20035;-86
2023/08/26 07:38:37;;;;;;;10.15;3.50;;;39.70;45.10;;;;;;5096170;28;20397;-85
2023/08/26 07:41:02;;;;;;;8.80;2.85;;;39.80;45.50;;;;;;5108787;28;20024;-86
2023/08/26 07:43:28;;;;;;;10.02;2.33;;;40.10;45.20;;;;;;5095463;28;20038;-86
2023/08/26 07:45:54;;;;;;;5.68;3.08;;;40.40;43.60;;;;;;5093611;28;20027;-86
2023/08/26 07:48:20;;;;;;;9.52;2.67;;;40.40;42.40;;;;;;5095081;28;20520;-86
2023/08/26 07:50:45;;;;;;;7.32;3.10;;;40.10;42.40;;;;;;5093911;28;20028;-87
2023/08/26 07:53:11;;;;;;;7.47;3.10;;;40.40;42.80;;;;;;5096093;28;20453;-86
2023/08/26 07:55:37;;;;;;;14.25;3.40;;;40.50;41.70;;;;;;5092183;28;20561;-86
2023/08/26 07:58:05;;;;;;;7.68;3.42;;;40.50;41.90;;;;;;5094890;28;20016;-85
2023/08/26 08:00:31;;;;;;;6.47;2.67;;;40.60;42.20;;;;;;5094366;28;20036;-86
2023/08/26 08:02:57;;;;;;;6.15;2.78;;;40.70;42.40;;;;;;5094383;28;20103;-86
2023/08/26 08:05:22;;;;;;;6.03;2.67;;;40.80;41.90;;;;;;5093169;28;20020;-86
2023/08/26 08:07:48;;;;;;;16.25;2.83;;;40.90;41.60;;;;;;5092417;28;20512;-85
2023/08/26 08:10:14;;;;;;;6.93;2.70;;;40.90;41.80;;;;;;5092266;28;20020;-85
2023/08/26 08:12:39;;;;;;;8.02;3.30;;;41.00;41.40;;;;;;5094198;28;20024;-86
2023/08/26 08:15:06;;;;;;;6.07;3.50;;;41.20;40.00;;;;;;5093075;28;20062;-86
2023/08/26 08:17:32;;;;;;;8.15;2.72;;;41.40;40.90;;;;;;5094228;28;20081;-86
2023/08/26 08:19:58;;;;;;;6.57;3.08;;;41.50;40.00;;;;;;5094255;28;20024;-86
2023/08/26 08:22:39;;;;;;;6.70;3.05;;;41.70;39.80;;;;;;5093028;28;20119;-86
2023/08/26 08:25:05;;;;;;;7.25;3.40;;;41.70;38.90;;;;;;5092891;28;20055;-86
2023/08/26 08:27:31;;;;;;;14.10;4.03;;;41.70;39.40;;;;;;5092720;28;20157;-86
2023/08/26 08:29:58;;;;;;;12.80;3.13;;;41.80;39.30;;;;;;5093912;28;20081;-85
2023/08/26 08:32:24;;;;;;;6.75;2.88;;;41.80;38.80;;;;;;5093908;28;20016;-86
2023/08/26 08:34:49;;;;;;;7.30;3.22;;;41.80;39.30;;;;;;5093857;28;20493;-87
2023/08/26 08:37:15;;;;;;;9.70;3.22;;;41.80;38.80;;;;;;5092483;28;20035;-86
2023/08/26 08:39:41;;;;;;;6.25;3.15;;;42.00;38.60;;;;;;5092559;28;20032;-86
2023/08/26 08:42:09;;;;;;;13.38;3.33;;;41.80;38.90;;;;;;5093604;28;20032;-86
2023/08/26 08:44:40;;;;;;;7.28;3.28;;;41.70;38.30;;;;;;5093377;28;20031;-85
2023/08/26 08:47:06;;;;;;;10.48;3.13;;;41.60;39.30;;;;;;5093055;28;20035;-85
2023/08/26 08:49:33;;;;;;;14.52;4.00;;;41.40;40.10;;;;;;5093028;28;20020;-85
2023/08/26 08:52:00;;;;;;;10.13;3.20;;;41.40;39.70;;;;;;5092332;28;20101;-84
2023/08/26 08:54:27;;;;;;;5.82;2.67;;;41.30;40.20;;;;;;5091839;28;20017;-84
2023/08/26 08:56:54;;;;;;;12.35;3.60;;;41.30;40.10;;;;;;5093265;28;20119;-86
2023/08/26 08:59:20;;;;;;;14.75;3.60;;;41.30;39.50;;;;;;5093190;28;20024;-85
2023/08/26 09:01:46;;;;;;;9.02;3.45;;;41.10;39.20;;;;;;5092050;28;20016;-86
2023/08/26 09:04:12;;;;;;;6.20;3.47;;;40.90;40.50;;;;;;5090597;28;20111;-85
2023/08/26 09:06:38;;;;;;;9.98;4.13;;;41.10;40.80;;;;;;5090785;28;20027;-86
2023/08/26 09:09:10;;;;;;;5.97;3.65;;;41.20;39.80;;;;;;5090658;28;20028;-86
2023/08/26 09:11:37;;;;;;;12.75;3.38;;;41.40;40.30;;;;;;5091807;28;20115;-86
2023/08/26 09:14:03;;;;;;;7.65;3.70;;;41.20;39.80;;;;;;5092344;28;20044;-86
2023/08/26 09:16:33;;;;;;;12.98;3.92;;;41.10;40.00;;;;;;5092862;28;20550;-86
2023/08/26 09:18:59;;;;;;;13.60;3.28;;;41.20;39.70;;;;;;5091640;28;20048;-86
2023/08/26 09:21:25;;;;;;;14.00;3.65;;;41.20;39.70;;;;;;5091660;28;20453;-86
2023/08/26 09:23:51;;;;;;;12.60;4.30;;;40.80;39.80;;;;;;5099986;28;20500;-86
2023/08/26 09:26:16;;;;;;;9.13;3.88;;;40.80;41.00;;;;;;5093755;28;20031;-85
2023/08/26 09:28:52;;;;;;;11.48;3.60;;;41.10;40.50;;;;;;5091929;28;20496;-86
2023/08/26 09:31:19;;;;;;;14.88;4.50;;;41.30;40.00;;;;;;5091479;28;20028;-85
2023/08/26 09:33:50;;;;;;;5.30;3.45;;;41.30;38.60;;;;;;5093078;28;20031;-86
2023/08/26 09:36:16;;;;;;;7.50;3.97;;;41.10;38.50;;;;;;5091358;28;20036;-86
2023/08/26 09:38:49;;;;;;;10.13;3.83;;;40.90;38.80;;;;;;5090927;28;20024;-86
2023/08/26 09:41:24;;;;;;;15.73;4.40;;;40.90;38.80;;;;;;5090302;28;20039;-85
2023/08/26 09:43:50;;;;;;;14.20;3.92;;;41.00;38.90;;;;;;5090783;28;20119;-86
2023/08/26 09:46:19;;;;;;;14.07;3.95;;;41.20;39.10;;;;;;5091008;28;20146;-86
2023/08/26 09:48:46;;;;;;;15.10;4.03;;;41.20;40.80;;;;;;5091391;28;20020;-86
2023/08/26 09:51:24;;;;;;;7.70;5.32;;;41.20;40.10;;;;;;5092086;28;20024;-86
2023/08/26 09:53:52;;;;;;;7.25;3.88;;;41.70;38.20;;;;;;5091702;28;20020;-86
2023/08/26 09:56:18;;;;;;;9.18;4.35;;;41.50;37.80;;;;;;5090843;28;20031;-86
2023/08/26 09:58:45;;;;;;;11.68;3.92;;;41.40;38.80;;;;;;5090921;28;20466;-86
2023/08/26 10:01:12;;;;;;;8.85;3.80;;;41.40;38.90;;;;;;5089592;28;20052;-84
2023/08/26 10:03:44;;;;;;;18.15;4.25;;;41.70;38.00;;;;;;5091381;28;20031;-83
2023/08/26 10:06:12;;;;;;;13.55;4.55;;;41.80;37.20;;;;;;5092350;28;20092;-86
2023/08/26 10:08:38;;;;;;;11.88;4.78;;;41.60;36.80;;;;;;5089879;28;20028;-85
2023/08/26 10:11:07;;;;;;;13.80;4.07;;;41.50;37.00;;;;;;5090951;28;20078;-86
2023/08/26 10:13:36;;;;;;;13.98;4.55;;;41.50;38.00;;;;;;5091166;28;20697;-85
2023/08/26 10:16:05;;;;;;;18.95;4.90;;;41.70;38.40;;;;;;5090297;28;20052;-85
2023/08/26 10:18:48;;;;;;;11.00;4.28;;;41.70;37.80;;;;;;5090906;28;20042;-84
2023/08/26 10:21:14;;;;;;;14.75;4.55;;;41.40;37.60;;;;;;5091971;28;20046;-84
2023/08/26 10:23:40;;;;;;;10.30;4.90;;;40.70;38.30;;;;;;5089440;28;20032;-84
2023/08/26 10:26:07;;;;;;;5.88;4.63;;;40.30;38.30;;;;;;5090521;28;20035;-85
2023/08/26 10:28:35;;;;;;;12.25;4.35;;;39.80;39.50;;;;;;5091912;28;20086;-85
2023/08/26 10:31:09;;;;;;;9.15;5.25;;;39.20;39.50;;;;;;5090187;28;20119;-85
2023/08/26 10:34:01;;;;;;;9.98;4.35;;;38.70;40.60;;;;;;5091060;28;20024;-85
2023/08/26 10:36:28;;;;;;;19.80;5.07;;;38.10;42.30;;;;;;5073374;28;20034;-84
2023/08/26 10:38:58;;;;;;;7.28;4.07;;;37.70;43.20;;;;;;5090530;28;20032;-85
2023/08/26 10:41:24;;;;;;;9.32;4.45;;;37.50;43.50;;;;;;5089528;28;20028;-85
2023/08/26 10:44:01;;;;;;;11.02;4.15;;;37.30;43.90;;;;;;5089433;28;20120;-87
2023/08/26 10:46:34;;;;;;;15.15;4.28;;;37.20;44.10;;;;;;5089720;28;20551;-85
2023/08/26 10:49:01;;;;;;;8.05;4.28;;;37.10;44.10;;;;;;5090528;28;20028;-85
2023/08/26 10:51:28;;;;;;;11.95;5.07;;;37.00;44.80;;;;;;5090854;28;20020;-84
2023/08/26 10:54:02;;;;;;;11.85;4.80;;;36.80;44.90;;;;;;5092765;28;20027;-84
2023/08/26 10:56:28;;;;;;;8.60;4.43;;;36.70;44.40;;;;;;5094691;28;20032;-85
2023/08/26 10:59:01;;;;;;;10.02;4.50;;;36.60;45.00;;;;;;5094841;28;20031;-85
2023/08/26 11:01:28;;;;;;;11.23;4.25;;;36.50;45.90;;;;;;5094806;28;20607;-86
2023/08/26 11:03:54;;;;;;;17.85;4.30;;;36.30;46.30;;;;;;5094124;28;20024;-85
2023/08/26 11:06:22;;;;;;;14.38;4.30;;;36.30;46.10;;;;;;5096097;28;20031;-83
2023/08/26 11:08:55;;;;;;;17.85;4.88;;;36.10;45.80;;;;;;5100499;28;20056;-84
2023/08/26 11:11:21;;;;;;;13.43;4.25;;;36.10;46.80;;;;;;5101751;28;20091;-84
2023/08/26 11:13:47;;;;;;;15.57;4.88;;;36.00;47.30;;;;;;5094201;28;20117;-83
2023/08/26 11:16:14;;;;;;;10.13;3.95;;;36.00;45.60;;;;;;5093824;28;20062;-83
2023/08/26 11:18:40;;;;;;;10.43;5.25;;;35.90;46.00;;;;;;5093618;28;20081;-84
2023/08/26 11:21:07;;;;;;;15.57;4.78;;;35.80;47.00;;;;;;5093732;28;20028;-85
2023/08/26 11:23:33;;;;;;;10.70;5.20;;;35.80;47.40;;;;;;5093442;28;20569;-85
2023/08/26 11:25:59;;;;;;;17.45;5.30;;;35.70;48.20;;;;;;5092335;28;20093;-85
2023/08/26 11:28:27;;;;;;;8.77;4.95;;;35.60;47.60;;;;;;5092357;28;20032;-85
2023/08/26 11:30:53;;;;;;;10.15;5.07;;;35.60;47.80;;;;;;5093771;28;20032;-85
2023/08/26 11:33:21;;;;;;;12.93;4.45;;;35.50;47.90;;;;;;5093499;28;20048;-84
2023/08/26 11:35:48;;;;;;;17.13;4.85;;;35.50;47.90;;;;;;5093751;28;20028;-85
2023/08/26 11:38:15;;;;;;;11.15;4.70;;;35.50;48.50;;;;;;5092662;28;20111;-85
2023/08/26 11:40:41;;;;;;;7.53;4.78;;;35.50;49.20;;;;;;5095168;28;20027;-85
2023/08/26 11:43:11;;;;;;;11.60;4.72;;;35.60;49.60;;;;;;5094093;28;20028;-84
2023/08/26 11:45:38;;;;;;;7.80;4.78;;;35.70;47.70;;;;;;5095212;28;20032;-84
2023/08/26 11:48:05;;;;;;;17.55;4.60;;;35.70;48.00;;;;;;5094155;28;20020;-85
2023/08/26 11:50:33;;;;;;;18.65;5.20;;;35.60;47.40;;;;;;5094061;28;20036;-86
2023/08/26 11:53:03;;;;;;;12.75;5.00;;;35.60;48.40;;;;;;5094419;28;20052;-85
2023/08/26 11:55:30;;;;;;;12.50;4.47;;;35.60;48.60;;;;;;5093116;28;20032;-85
2023/08/26 11:57:57;;;;;;;6.85;4.05;;;35.70;46.50;;;;;;5093045;28;20024;-85
2023/08/26 12:00:23;;;;;;;9.13;4.80;;;35.60;46.80;;;;;;5093567;28;20024;-83
2023/08/26 12:02:51;;;;;;;15.23;4.80;;;35.60;48.00;;;;;;5093503;28;20024;-83
2023/08/26 12:05:18;;;;;;;11.57;4.30;;;35.50;47.20;;;;;;5092167;28;20031;-85
2023/08/26 12:07:50;;;;;;;8.15;4.45;;;35.50;46.90;;;;;;5094528;28;20028;-85
2023/08/26 12:10:18;;;;;;;13.70;4.07;;;35.40;47.00;;;;;;5093572;28;20574;-85
2023/08/26 12:12:46;;;;;;;8.35;4.45;;;35.60;48.10;;;;;;5093128;28;20028;-85
2023/08/26 12:15:14;;;;;;;10.55;3.88;;;35.60;48.10;;;;;;5094674;28;20051;-85
2023/08/26 12:17:43;;;;;;;11.02;4.60;;;35.60;48.60;;;;;;5093146;28;20032;-84
2023/08/26 12:20:26;;;;;;;17.98;4.50;;;35.70;48.20;;;;;;5091792;28;20024;-83
2023/08/26 12:22:53;;;;;;;7.70;4.22;;;35.80;48.00;;;;;;5093746;28;20452;-85
2023/08/26 12:25:41;;;;;;;18.58;4.00;;;35.70;47.60;;;;;;5093672;28;20495;-85
2023/08/26 12:28:13;;;;;;;15.75;4.72;;;35.70;46.60;;;;;;5092962;28;20028;-84
2023/08/26 12:30:41;;;;;;;9.40;4.47;;;35.60;46.10;;;;;;5091563;28;20111;-84
2023/08/26 12:33:08;;;;;;;14.45;4.35;;;35.50;46.90;;;;;;5093146;28;20036;-85
2023/08/26 12:35:38;;;;;;;8.38;4.57;;;35.60;47.20;;;;;;5090932;28;20040;-83
2023/08/26 12:38:04;;;;;;;12.55;4.13;;;35.60;47.00;;;;;;5092547;28;20150;-84
2023/08/26 12:40:31;;;;;;;11.95;4.40;;;35.60;46.90;;;;;;5090924;28;20022;-83
2023/08/26 12:42:58;;;;;;;9.88;4.50;;;35.60;47.50;;;;;;5092280;28;20059;-84